sensor_id;sensor_type;location;lat;lon;timestamp;temperature;humidity
28010;DHT22;15334;49.494;8.410;2024-03-23T05:52:33;8.50;99.90
28010;DHT22;15334;49.494;8.410;2024-03-23T05:55:00;8.80;99.90
28010;DHT22;15334;49.494;8.410;2024-03-23T05:57:26;9.00;99.90
28010;DHT22;15334;49.494;8.410;2024-03-23T05:59:53;8.90;99.90
28010;DHT22;15334;49.494;8.410;2024-03-23T06:02:19;8.90;99.90
28010;DHT22;15334;49.494;8.410;2024-03-23T06:04:46;9.00;99.90
28010;DHT22;15334;49.494;8.410;2024-03-23T06:07:13;9.00;99.90
28010;DHT22;15334;49.494;8.410;2024-03-23T06:09:42;9.00;99.90
28010;DHT22;15334;49.494;8.410;2024-03-23T06:12:08;9.40;99.90
28010;DHT22;15334;49.494;8.410;2024-03-23T06:14:35;9.00;99.90
28010;DHT22;15334;49.494;8.410;2024-03-23T06:17:01;9.10;99.90
28010;DHT22;15334;49.494;8.410;2024-03-23T06:19:28;9.10;99.90
28010;DHT22;15334;49.494;8.410;2024-03-23T06:21:54;9.10;99.90
28010;DHT22;15334;49.494;8.410;2024-03-23T06:24:22;9.10;99.90
28010;DHT22;15334;49.494;8.410;2024-03-23T06:26:49;9.00;99.90
28010;DHT22;15334;49.494;8.410;2024-03-23T06:29:16;9.00;99.90
28010;DHT22;15334;49.494;8.410;2024-03-23T06:31:42;9.40;99.90
28010;DHT22;15334;49.494;8.410;2024-03-23T06:34:09;8.90;99.90
28010;DHT22;15334;49.494;8.410;2024-03-23T06:36:35;8.90;99.90
28010;DHT22;15334;49.494;8.410;2024-03-23T06:39:04;8.80;99.90
28010;DHT22;15334;49.494;8.410;2024-03-23T06:41:30;8.80;99.90
28010;DHT22;15334;49.494;8.410;2024-03-23T06:43:58;8.80;99.90
28010;DHT22;15334;49.494;8.410;2024-03-23T06:46:24;8.80;99.90
28010;DHT22;15334;49.494;8.410;2024-03-23T06:48:51;8.90;99.90
28010;DHT22;15334;49.494;8.410;2024-03-23T18:02:33;7.70;99.90
28010;DHT22;15334;49.494;8.410;2024-03-23T18:05:00;6.30;99.90
28010;DHT22;15334;49.494;8.410;2024-03-23T18:07:26;6.40;99.90
28010;DHT22;15334;49.494;8.410;2024-03-23T18:09:53;6.40;99.90
28010;DHT22;15334;49.494;8.410;2024-03-23T18:12:19;6.50;99.90
28010;DHT22;15334;49.494;8.410;2024-03-23T18:14:46;6.50;99.90
28010;DHT22;15334;49.494;8.410;2024-03-23T18:17:12;6.50;99.90
28010;DHT22;15334;49.494;8.410;2024-03-23T18:19:41;6.60;99.90
28010;DHT22;15334;49.494;8.410;2024-03-23T18:22:07;6.60;99.90
28010;DHT22;15334;49.494;8.410;2024-03-23T18:24:34;6.50;99.90
28010;DHT22;15334;49.494;8.410;2024-03-23T18:29:27;6.40;99.90
28010;DHT22;15334;49.494;8.410;2024-03-23T18:31:53;6.00;99.90
28010;DHT22;15334;49.494;8.410;2024-03-23T18:34:20;6.30;99.90
28010;DHT22;15334;49.494;8.410;2024-03-23T18:36:47;6.20;99.90
28010;DHT22;15334;49.494;8.410;2024-03-23T18:39:14;6.20;99.90
28010;DHT22;15334;49.494;8.410;2024-03-23T18:41:40;6.20;99.90
28010;DHT22;15334;49.494;8.410;2024-03-23T18:44:08;6.20;99.90
28010;DHT22;15334;49.494;8.410;2024-03-23T18:46:34;6.20;99.90
28010;DHT22;15334;49.494;8.410;2024-03-23T18:49:01;6.10;99.90
28010;DHT22;15334;49.494;8.410;2024-03-23T18:51:29;6.10;99.90
28010;DHT22;15334;49.494;8.410;2024-03-23T18:53:57;6.10;99.90
28010;DHT22;15334;49.494;8.410;2024-03-23T18:56:26;6.10;99.90
28010;DHT22;15334;49.494;8.410;2024-03-23T18:58:53;6.10;99.90
28010;DHT22;15334;49.494;8.410;2024-03-23T19:01:19;6.00;99.90
28010;DHT22;15334;49.494;8.410;2024-03-23T19:03:46;6.00;99.90
28010;DHT22;15334;49.494;8.410;2024-03-23T19:06:13;6.00;99.90
28010;DHT22;15334;49.494;8.410;2024-03-23T19:08:40;6.00;99.90
28010;DHT22;15334;49.494;8.410;2024-03-23T19:11:07;5.90;99.90
28010;DHT22;15334;49.494;8.410;2024-03-23T19:13:34;5.90;99.90
28010;DHT22;15334;49.494;8.410;2024-03-23T19:16:01;6.00;99.90
28010;DHT22;15334;49.494;8.410;2024-03-23T19:18:31;6.00;99.90
28010;DHT22;15334;49.494;8.410;2024-03-23T19:20:58;6.00;99.90
28010;DHT22;15334;49.494;8.410;2024-03-23T19:23:25;6.00;99.90
28010;DHT22;15334;49.494;8.410;2024-03-23T19:25:52;6.00;99.90
28010;DHT22;15334;49.494;8.410;2024-03-23T19:28:21;6.00;99.90
28010;DHT22;15334;49.494;8.410;2024-03-23T19:30:48;6.00;99.90
28010;DHT22;15334;49.494;8.410;2024-03-23T19:33:15;6.00;99.90
28010;DHT22;15334;49.494;8.410;2024-03-23T19:35:41;6.00;99.90
28010;DHT22;15334;49.494;8.410;2024-03-23T19:40:35;6.10;99.90
28010;DHT22;15334;49.494;8.410;2024-03-23T19:43:02;6.10;99.90
28010;DHT22;15334;49.494;8.410;2024-03-23T19:45:30;6.10;99.90
28010;DHT22;15334;49.494;8.410;2024-03-23T19:47:57;6.00;99.90
28010;DHT22;15334;49.494;8.410;2024-03-23T19:50:23;6.00;99.90
28010;DHT22;15334;49.494;8.410;2024-03-23T19:52:50;6.00;99.90
28010;DHT22;15334;49.494;8.410;2024-03-23T19:55:16;5.90;99.90
28010;DHT22;15334;49.494;8.410;2024-03-23T19:57:44;5.90;99.90
28010;DHT22;15334;49.494;8.410;2024-03-23T20:00:11;5.90;99.90
28010;DHT22;15334;49.494;8.410;2024-03-23T20:02:40;5.80;99.90
28010;DHT22;15334;49.494;8.410;2024-03-23T20:05:09;5.80;99.90
28010;DHT22;15334;49.494;8.410;2024-03-23T20:07:36;5.80;99.90
28010;DHT22;15334;49.494;8.410;2024-03-23T20:10:02;5.80;99.90
28010;DHT22;15334;49.494;8.410;2024-03-23T20:12:29;5.80;99.90
28010;DHT22;15334;49.494;8.410;2024-03-23T20:14:55;5.80;99.90
28010;DHT22;15334;49.494;8.410;2024-03-23T20:17:22;5.80;99.90
28010;DHT22;15334;49.494;8.410;2024-03-23T20:19:50;5.80;99.90
28010;DHT22;15334;49.494;8.410;2024-03-23T20:22:17;5.80;99.90
28010;DHT22;15334;49.494;8.410;2024-03-23T20:24:43;5.70;99.90
28010;DHT22;15334;49.494;8.410;2024-03-23T20:27:10;5.70;99.90
28010;DHT22;15334;49.494;8.410;2024-03-23T20:29:36;5.70;99.90
28010;DHT22;15334;49.494;8.410;2024-03-23T20:32:04;5.70;99.90
28010;DHT22;15334;49.494;8.410;2024-03-23T20:34:30;5.70;99.90
28010;DHT22;15334;49.494;8.410;2024-03-23T20:36:58;5.70;99.90
28010;DHT22;15334;49.494;8.410;2024-03-23T20:39:24;5.70;99.90
28010;DHT22;15334;49.494;8.410;2024-03-23T20:41:51;5.70;99.90
28010;DHT22;15334;49.494;8.410;2024-03-23T20:44:17;5.70;99.90
28010;DHT22;15334;49.494;8.410;2024-03-23T20:46:44;5.70;99.90
28010;DHT22;15334;49.494;8.410;2024-03-23T20:49:10;5.70;99.90
28010;DHT22;15334;49.494;8.410;2024-03-23T20:51:37;5.70;99.90
28010;DHT22;15334;49.494;8.410;2024-03-23T20:54:05;5.70;99.90
28010;DHT22;15334;49.494;8.410;2024-03-23T20:56:33;5.70;99.90
28010;DHT22;15334;49.494;8.410;2024-03-23T20:58:59;5.70;99.90
28010;DHT22;15334;49.494;8.410;2024-03-23T21:01:26;5.70;99.90
28010;DHT22;15334;49.494;8.410;2024-03-23T21:03:51;5.70;99.90
28010;DHT22;15334;49.494;8.410;2024-03-23T21:06:21;5.80;99.90
28010;DHT22;15334;49.494;8.410;2024-03-23T21:08:47;5.80;99.90
28010;DHT22;15334;49.494;8.410;2024-03-23T21:11:15;5.80;99.90
28010;DHT22;15334;49.494;8.410;2024-03-23T21:13:41;5.80;99.90
28010;DHT22;15334;49.494;8.410;2024-03-23T21:16:08;5.80;99.90
28010;DHT22;15334;49.494;8.410;2024-03-23T21:18:34;5.90;99.90
28010;DHT22;15334;49.494;8.410;2024-03-23T21:21:03;5.90;99.90
28010;DHT22;15334;49.494;8.410;2024-03-23T21:23:30;6.00;99.90
28010;DHT22;15334;49.494;8.410;2024-03-23T21:25:58;6.00;99.90
28010;DHT22;15334;49.494;8.410;2024-03-23T21:28:26;6.10;99.90
28010;DHT22;15334;49.494;8.410;2024-03-23T21:30:54;6.10;99.90
28010;DHT22;15334;49.494;8.410;2024-03-23T21:33:20;6.10;99.90
28010;DHT22;15334;49.494;8.410;2024-03-23T21:35:53;6.10;99.90
28010;DHT22;15334;49.494;8.410;2024-03-23T21:38:20;6.10;99.90
